sensor_id;sensor_type;location;lat;lon;timestamp;pressure;altitude;pressure_sealevel;temperature;humidity
7180;BME280;3631;42.152;24.756;2023-06-26T00:01:09;84279.38;;;-144.30;70.22
7180;BME280;3631;42.152;24.756;2023-06-26T00:03:36;84297.28;;;-144.30;69.66
7180;BME280;3631;42.152;24.756;2023-06-26T00:06:03;84231.69;;;-144.30;69.80
7180;BME280;3631;42.152;24.756;2023-06-26T00:08:29;84305.22;;;-144.30;69.49
7180;BME280;3631;42.152;24.756;2023-06-26T00:10:56;84072.72;;;-144.30;69.48
7180;BME280;3631;42.152;24.756;2023-06-26T00:13:25;84251.56;;;-144.30;69.62
7180;BME280;3631;42.152;24.756;2023-06-26T00:15:52;84319.13;;;-144.30;70.26
7180;BME280;3631;42.152;24.756;2023-06-26T00:18:19;84299.25;;;-144.30;70.00
7180;BME280;3631;42.152;24.756;2023-06-26T00:20:46;84299.25;;;-144.30;69.51
7180;BME280;3631;42.152;24.756;2023-06-26T00:23:13;84291.31;;;-144.30;69.50
7180;BME280;3631;42.152;24.756;2023-06-26T00:25:43;84295.28;;;-144.30;69.60
7180;BME280;3631;42.152;24.756;2023-06-26T00:28:10;84311.19;;;-144.30;69.88
7180;BME280;3631;42.152;24.756;2023-06-26T00:30:38;84321.13;;;-144.30;69.62
7180;BME280;3631;42.152;24.756;2023-06-26T00:33:05;84331.06;;;-144.30;69.49
7180;BME280;3631;42.152;24.756;2023-06-26T00:35:32;84315.16;;;-144.30;69.71
7180;BME280;3631;42.152;24.756;2023-06-26T00:37:59;84329.06;;;-144.30;69.92
7180;BME280;3631;42.152;24.756;2023-06-26T00:40:25;84339.00;;;-144.30;70.49
7180;BME280;3631;42.152;24.756;2023-06-26T00:42:53;84323.13;;;-144.30;70.94
7180;BME280;3631;42.152;24.756;2023-06-26T00:45:21;85002.84;;;-144.30;71.29
7180;BME280;3631;42.152;24.756;2023-06-26T00:47:49;84325.09;;;-144.30;70.79
7180;BME280;3631;42.152;24.756;2023-06-26T00:50:16;84337.03;;;-144.30;71.01
7180;BME280;3631;42.152;24.756;2023-06-26T00:52:43;84335.03;;;-144.30;71.19
7180;BME280;3631;42.152;24.756;2023-06-26T00:55:10;84358.88;;;-144.30;71.04
7180;BME280;3631;42.152;24.756;2023-06-26T00:57:37;84342.97;;;-144.30;70.90
7180;BME280;3631;42.152;24.756;2023-06-26T01:00:05;84344.97;;;-144.30;70.88
7180;BME280;3631;42.152;24.756;2023-06-26T01:02:33;84356.91;;;-144.30;71.57
7180;BME280;3631;42.152;24.756;2023-06-26T01:05:01;84281.38;;;-144.30;71.74
7180;BME280;3631;42.152;24.756;2023-06-26T01:07:32;84360.88;;;-144.30;72.38
7180;BME280;3631;42.152;24.756;2023-06-26T01:10:02;84265.47;;;-144.30;71.97
7180;BME280;3631;42.152;24.756;2023-06-26T01:12:30;84390.69;;;-144.30;72.49
7180;BME280;3631;42.152;24.756;2023-06-26T01:14:58;84331.06;;;-144.30;73.10
7180;BME280;3631;42.152;24.756;2023-06-26T01:17:25;84778.25;;;-144.30;73.34
7180;BME280;3631;42.152;24.756;2023-06-26T01:19:57;84394.66;;;-144.30;73.61
7180;BME280;3631;42.152;24.756;2023-06-26T01:22:32;84418.50;;;-144.30;73.90
7180;BME280;3631;42.152;24.756;2023-06-26T01:25:15;84430.44;;;-144.30;74.69
7180;BME280;3631;42.152;24.756;2023-06-26T01:27:48;84410.56;;;-144.30;74.90
7180;BME280;3631;42.152;24.756;2023-06-26T01:30:15;84354.91;;;-144.30;75.55
7180;BME280;3631;42.152;24.756;2023-06-26T01:32:43;84404.59;;;-144.30;75.33
7180;BME280;3631;42.152;24.756;2023-06-26T01:35:11;84426.47;;;-144.30;75.23
7180;BME280;3631;42.152;24.756;2023-06-26T01:37:38;84394.66;;;-144.30;75.45
7180;BME280;3631;42.152;24.756;2023-06-26T01:40:06;84440.38;;;-144.30;75.78
7180;BME280;3631;42.152;24.756;2023-06-26T01:42:35;84424.47;;;-144.30;76.05
7180;BME280;3631;42.152;24.756;2023-06-26T01:45:07;84448.31;;;-144.30;76.28
7180;BME280;3631;42.152;24.756;2023-06-26T01:47:38;84452.28;;;-144.30;75.83
7180;BME280;3631;42.152;24.756;2023-06-26T01:50:11;84450.31;;;-144.30;76.34
7180;BME280;3631;42.152;24.756;2023-06-26T01:52:41;84414.53;;;-144.30;76.28
7180;BME280;3631;42.152;24.756;2023-06-26T01:55:16;84374.78;;;-144.30;75.59
7180;BME280;3631;42.152;24.756;2023-06-26T01:57:45;84466.19;;;-144.30;75.57
7180;BME280;3631;42.152;24.756;2023-06-26T02:00:16;84462.22;;;-144.30;75.60
7180;BME280;3631;42.152;24.756;2023-06-26T02:02:44;84394.66;;;-144.30;75.42
7180;BME280;3631;42.152;24.756;2023-06-26T02:05:12;84422.47;;;-144.30;75.65
7180;BME280;3631;42.152;24.756;2023-06-26T02:07:39;84458.25;;;-144.30;76.50
7180;BME280;3631;42.152;24.756;2023-06-26T02:10:07;84327.09;;;-144.30;76.28
7180;BME280;3631;42.152;24.756;2023-06-26T02:12:34;84454.28;;;-144.30;76.34
7180;BME280;3631;42.152;24.756;2023-06-26T02:15:01;84432.41;;;-144.30;76.54
7180;BME280;3631;42.152;24.756;2023-06-26T02:17:29;84446.31;;;-144.30;76.51
7180;BME280;3631;42.152;24.756;2023-06-26T02:19:56;84424.47;;;-144.30;76.48
7180;BME280;3631;42.152;24.756;2023-06-26T02:22:23;84468.19;;;-144.30;76.21
7180;BME280;3631;42.152;24.756;2023-06-26T02:24:50;84446.31;;;-144.30;76.26
7180;BME280;3631;42.152;24.756;2023-06-26T02:27:17;84464.22;;;-144.30;76.73
7180;BME280;3631;42.152;24.756;2023-06-26T02:29:44;84478.13;;;-144.30;76.85
7180;BME280;3631;42.152;24.756;2023-06-26T02:32:11;84523.84;;;-144.30;76.78
7180;BME280;3631;42.152;24.756;2023-06-26T02:34:39;84498.00;;;-144.30;76.95
7180;BME280;3631;42.152;24.756;2023-06-26T02:37:06;84505.94;;;-144.30;77.45
7180;BME280;3631;42.152;24.756;2023-06-26T02:39:33;84456.25;;;-144.30;77.53
7180;BME280;3631;42.152;24.756;2023-06-26T02:42:00;84446.31;;;-144.30;77.07
7180;BME280;3631;42.152;24.756;2023-06-26T02:44:27;84498.00;;;-144.30;77.13
7180;BME280;3631;42.152;24.756;2023-06-26T02:46:54;84450.31;;;-144.30;76.82
7180;BME280;3631;42.152;24.756;2023-06-26T02:49:21;84414.53;;;-144.30;76.68
7180;BME280;3631;42.152;24.756;2023-06-26T02:51:50;84486.06;;;-144.30;76.43
7180;BME280;3631;42.152;24.756;2023-06-26T02:54:17;84480.13;;;-144.30;76.77
7180;BME280;3631;42.152;24.756;2023-06-26T02:56:43;84478.13;;;-144.30;77.77
7180;BME280;3631;42.152;24.756;2023-06-26T02:59:10;84456.25;;;-144.30;77.65
7180;BME280;3631;42.152;24.756;2023-06-26T03:01:37;84492.03;;;-144.30;77.31
7180;BME280;3631;42.152;24.756;2023-06-26T03:04:04;84519.88;;;-144.30;77.38
7180;BME280;3631;42.152;24.756;2023-06-26T03:06:31;84452.28;;;-144.30;77.74
7180;BME280;3631;42.152;24.756;2023-06-26T03:08:59;84505.94;;;-144.30;77.21
7180;BME280;3631;42.152;24.756;2023-06-26T03:11:26;84478.13;;;-144.30;76.53
7180;BME280;3631;42.152;24.756;2023-06-26T03:13:53;84454.28;;;-144.30;77.04
7180;BME280;3631;42.152;24.756;2023-06-26T03:16:20;84468.19;;;-144.30;76.63
7180;BME280;3631;42.152;24.756;2023-06-26T03:18:47;84446.31;;;-144.30;75.76
7180;BME280;3631;42.152;24.756;2023-06-26T03:21:14;84464.22;;;-144.30;76.19
7180;BME280;3631;42.152;24.756;2023-06-26T03:23:41;84478.13;;;-144.30;76.04
7180;BME280;3631;42.152;24.756;2023-06-26T03:26:09;84422.47;;;-144.30;75.72
7180;BME280;3631;42.152;24.756;2023-06-26T03:28:36;84430.44;;;-144.30;75.32
7180;BME280;3631;42.152;24.756;2023-06-26T03:31:03;84350.94;;;-144.30;74.99
7180;BME280;3631;42.152;24.756;2023-06-26T03:33:29;84416.50;;;-144.30;74.72
7180;BME280;3631;42.152;24.756;2023-06-26T03:35:56;84442.34;;;-144.30;74.43
7180;BME280;3631;42.152;24.756;2023-06-26T03:38:24;84311.19;;;-144.30;74.07
7180;BME280;3631;42.152;24.756;2023-06-26T03:40:52;84416.50;;;-144.30;74.17
7180;BME280;3631;42.152;24.756;2023-06-26T03:43:20;84390.69;;;-144.30;73.85
7180;BME280;3631;42.152;24.756;2023-06-26T03:45:47;84396.66;;;-144.30;73.04
7180;BME280;3631;42.152;24.756;2023-06-26T03:48:14;84362.84;;;-144.30;72.61
7180;BME280;3631;42.152;24.756;2023-06-26T03:50:41;84342.97;;;-144.30;72.03
7180;BME280;3631;42.152;24.756;2023-06-26T03:53:07;84344.97;;;-144.30;71.51
7180;BME280;3631;42.152;24.756;2023-06-26T03:55:34;84319.13;;;-144.30;71.63
7180;BME280;3631;42.152;24.756;2023-06-26T03:58:01;84295.28;;;-144.30;71.18
7180;BME280;3631;42.152;24.756;2023-06-26T04:00:30;84186.00;;;-144.30;67.85
7180;BME280;3631;42.152;24.756;2023-06-26T04:02:56;83981.31;;;-144.30;63.58
7180;BME280;3631;42.152;24.756;2023-06-26T04:05:23;83939.59;;;-144.30;60.11
7180;BME280;3631;42.152;24.756;2023-06-26T04:07:50;83899.84;;;-144.30;59.41
7180;BME280;3631;42.152;24.756;2023-06-26T04:10:17;84138.28;;;-144.30;59.78
7180;BME280;3631;42.152;24.756;2023-06-26T04:12:46;83409.06;;;-144.30;54.64
7180;BME280;3631;42.152;24.756;2023-06-26T04:15:13;83343.50;;;-144.30;50.18
7180;BME280;3631;42.152;24.756;2023-06-26T04:17:41;83192.50;;;-144.30;47.15
7180;BME280;3631;42.152;24.756;2023-06-26T04:20:09;83085.22;;;-144.30;45.97
7180;BME280;3631;42.152;24.756;2023-06-26T04:22:36;82975.97;;;-144.30;44.44
7180;BME280;3631;42.152;24.756;2023-06-26T04:25:03;82944.19;;;-144.30;43.43
7180;BME280;3631;42.152;24.756;2023-06-26T04:27:30;82975.97;;;-144.30;43.55
7180;BME280;3631;42.152;24.756;2023-06-26T04:29:57;83063.38;;;-144.30;44.64
7180;BME280;3631;42.152;24.756;2023-06-26T04:32:24;83031.59;;;-144.30;44.11
7180;BME280;3631;42.152;24.756;2023-06-26T04:34:52;83089.22;;;-144.30;44.27
7180;BME280;3631;42.152;24.756;2023-06-26T04:37:19;83174.63;;;-144.30;45.48
7180;BME280;3631;42.152;24.756;2023-06-26T04:39:46;83991.25;;;-144.30;47.52
7180;BME280;3631;42.152;24.756;2023-06-26T04:42:13;83417.00;;;-144.30;48.77
7180;BME280;3631;42.152;24.756;2023-06-26T04:44:40;83528.28;;;-144.30;49.25
7180;BME280;3631;42.152;24.756;2023-06-26T04:47:08;83458.72;;;-144.30;49.66
7180;BME280;3631;42.152;24.756;2023-06-26T04:49:35;83413.03;;;-144.30;48.92
7180;BME280;3631;42.152;24.756;2023-06-26T04:52:03;83271.97;;;-144.30;48.59
7180;BME280;3631;42.152;24.756;2023-06-26T04:54:30;83236.22;;;-144.30;46.60
7180;BME280;3631;42.152;24.756;2023-06-26T04:56:57;82964.06;;;-144.30;44.67
7180;BME280;3631;42.152;24.756;2023-06-26T04:59:25;82767.38;;;-144.30;42.79
7180;BME280;3631;42.152;24.756;2023-06-26T05:01:52;82681.97;;;-144.30;40.68
7180;BME280;3631;42.152;24.756;2023-06-26T05:04:20;82531.00;;;-144.30;39.12
7180;BME280;3631;42.152;24.756;2023-06-26T05:06:48;82360.19;;;-144.30;37.55
7180;BME280;3631;42.152;24.756;2023-06-26T05:09:16;82245.00;;;-144.30;36.60
7180;BME280;3631;42.152;24.756;2023-06-26T05:11:43;82201.31;;;-144.30;36.36
7180;BME280;3631;42.152;24.756;2023-06-26T05:14:10;82197.34;;;-144.30;36.18
7180;BME280;3631;42.152;24.756;2023-06-26T05:16:38;81984.81;;;-144.30;35.29
7180;BME280;3631;42.152;24.756;2023-06-26T05:19:05;81744.53;;;-144.30;33.78
7180;BME280;3631;42.152;24.756;2023-06-26T05:21:32;81585.66;;;-144.30;33.13
7180;BME280;3631;42.152;24.756;2023-06-26T05:24:01;81700.84;;;-144.30;33.42
7180;BME280;3631;42.152;24.756;2023-06-26T05:26:31;81661.13;;;-144.30;33.19
7180;BME280;3631;42.152;24.756;2023-06-26T05:28:58;81627.38;;;-144.30;32.97
7180;BME280;3631;42.152;24.756;2023-06-26T05:31:26;81512.19;;;-144.30;32.46
7180;BME280;3631;42.152;24.756;2023-06-26T05:33:55;81522.13;;;-144.30;32.56
7180;BME280;3631;42.152;24.756;2023-06-26T05:36:24;81279.88;;;-144.30;31.66
7180;BME280;3631;42.152;24.756;2023-06-26T05:38:54;81399.00;;;-144.30;31.83
7180;BME280;3631;42.152;24.756;2023-06-26T05:41:22;81468.50;;;-144.30;32.22
7180;BME280;3631;42.152;24.756;2023-06-26T05:43:51;81522.13;;;-144.30;32.09
7180;BME280;3631;42.152;24.756;2023-06-26T05:46:19;81397.03;;;-144.30;31.65
7180;BME280;3631;42.152;24.756;2023-06-26T05:48:46;81273.91;;;-144.30;30.98
7180;BME280;3631;42.152;24.756;2023-06-26T05:51:14;81202.44;;;-144.30;30.91
7180;BME280;3631;42.152;24.756;2023-06-26T05:53:41;81391.06;;;-144.30;31.23
7180;BME280;3631;42.152;24.756;2023-06-26T05:56:09;81818.00;;;-144.30;32.69
7180;BME280;3631;42.152;24.756;2023-06-26T05:58:37;81961.00;;;-144.30;33.46
7180;BME280;3631;42.152;24.756;2023-06-26T06:01:05;81925.25;;;-144.30;33.62
7180;BME280;3631;42.152;24.756;2023-06-26T06:03:32;81808.09;;;-144.30;32.97
7180;BME280;3631;42.152;24.756;2023-06-26T06:05:59;81738.56;;;-144.30;32.35
7180;BME280;3631;42.152;24.756;2023-06-26T06:08:26;81843.81;;;-144.30;32.49
7180;BME280;3631;42.152;24.756;2023-06-26T06:10:53;81961.00;;;-144.30;33.66
7180;BME280;3631;42.152;24.756;2023-06-26T06:13:20;82437.66;;;-144.30;35.64
7180;BME280;3631;42.152;24.756;2023-06-26T06:15:46;82638.28;;;-144.30;36.96
7180;BME280;3631;42.152;24.756;2023-06-26T06:18:15;82828.97;;;-144.30;38.54
7180;BME280;3631;42.152;24.756;2023-06-26T06:20:42;82878.63;;;-144.30;39.39
7180;BME280;3631;42.152;24.756;2023-06-26T06:23:09;83045.50;;;-144.30;40.62
7180;BME280;3631;42.152;24.756;2023-06-26T06:25:35;83121.00;;;-144.30;41.68
7180;BME280;3631;42.152;24.756;2023-06-26T06:28:04;83158.75;;;-144.30;42.45
7180;BME280;3631;42.152;24.756;2023-06-26T06:30:31;83299.78;;;-144.30;43.89
7180;BME280;3631;42.152;24.756;2023-06-26T06:32:58;83399.13;;;-144.30;45.13
7180;BME280;3631;42.152;24.756;2023-06-26T06:35:28;83534.22;;;-144.30;46.69
7180;BME280;3631;42.152;24.756;2023-06-26T06:37:55;83512.38;;;-144.30;47.13
7180;BME280;3631;42.152;24.756;2023-06-26T06:40:21;83581.91;;;-144.30;47.59
7180;BME280;3631;42.152;24.756;2023-06-26T06:42:48;83611.72;;;-144.30;47.95
7180;BME280;3631;42.152;24.756;2023-06-26T06:45:18;83615.69;;;-144.30;48.19
7180;BME280;3631;42.152;24.756;2023-06-26T06:47:47;83699.16;;;-144.30;48.88
7180;BME280;3631;42.152;24.756;2023-06-26T06:50:14;83695.19;;;-144.30;48.85
7180;BME280;3631;42.152;24.756;2023-06-26T06:52:43;83583.91;;;-144.30;49.60
7180;BME280;3631;42.152;24.756;2023-06-26T06:55:10;83734.91;;;-144.30;50.09
7180;BME280;3631;42.152;24.756;2023-06-26T06:57:37;83693.19;;;-144.30;49.91
7180;BME280;3631;42.152;24.756;2023-06-26T07:00:06;83663.38;;;-144.30;49.49
7180;BME280;3631;42.152;24.756;2023-06-26T07:02:34;83621.66;;;-144.30;48.86
7180;BME280;3631;42.152;24.756;2023-06-26T07:05:01;84068.75;;;-144.30;47.89
7180;BME280;3631;42.152;24.756;2023-06-26T07:07:30;83556.09;;;-144.30;47.42
7180;BME280;3631;42.152;24.756;2023-06-26T07:09:59;83520.31;;;-144.30;46.60
7180;BME280;3631;42.152;24.756;2023-06-26T07:12:26;83432.91;;;-144.30;45.48
7180;BME280;3631;42.152;24.756;2023-06-26T07:14:54;83369.34;;;-144.30;44.76
7180;BME280;3631;42.152;24.756;2023-06-26T07:17:21;83357.41;;;-144.30;44.47
7180;BME280;3631;42.152;24.756;2023-06-26T07:19:48;83192.50;;;-144.30;44.06
7180;BME280;3631;42.152;24.756;2023-06-26T07:22:16;83579.94;;;-144.30;44.30
7180;BME280;3631;42.152;24.756;2023-06-26T07:24:44;83319.66;;;-144.30;43.92
7180;BME280;3631;42.152;24.756;2023-06-26T07:27:12;83317.66;;;-144.30;43.54
7180;BME280;3631;42.152;24.756;2023-06-26T07:29:39;83313.69;;;-144.30;43.53
7180;BME280;3631;42.152;24.756;2023-06-26T07:32:07;83256.09;;;-144.30;42.70
7180;BME280;3631;42.152;24.756;2023-06-26T07:34:34;83192.50;;;-144.30;42.43
7180;BME280;3631;42.152;24.756;2023-06-26T07:37:00;83198.47;;;-144.30;41.95
7180;BME280;3631;42.152;24.756;2023-06-26T07:39:27;83063.38;;;-144.30;41.53
7180;BME280;3631;42.152;24.756;2023-06-26T07:41:54;82850.81;;;-144.30;40.40
7180;BME280;3631;42.152;24.756;2023-06-26T07:44:25;82687.94;;;-144.30;38.65
7180;BME280;3631;42.152;24.756;2023-06-26T07:46:52;82763.41;;;-144.30;37.02
7180;BME280;3631;42.152;24.756;2023-06-26T07:49:18;82191.38;;;-144.30;35.66
7180;BME280;3631;42.152;24.756;2023-06-26T07:51:45;82078.16;;;-144.30;34.69
7180;BME280;3631;42.152;24.756;2023-06-26T07:54:12;82141.72;;;-144.30;34.16
7180;BME280;3631;42.152;24.756;2023-06-26T07:56:52;82380.06;;;-144.30;35.22
7180;BME280;3631;42.152;24.756;2023-06-26T07:59:20;82483.34;;;-144.30;35.65
7180;BME280;3631;42.152;24.756;2023-06-26T08:01:49;82674.03;;;-144.30;36.75
7180;BME280;3631;42.152;24.756;2023-06-26T08:04:17;82807.13;;;-144.30;37.41
7180;BME280;3631;42.152;24.756;2023-06-26T08:06:45;82880.63;;;-144.30;38.10
7180;BME280;3631;42.152;24.756;2023-06-26T08:09:12;82942.19;;;-144.30;38.73
7180;BME280;3631;42.152;24.756;2023-06-26T08:11:39;83043.50;;;-144.30;39.46
7180;BME280;3631;42.152;24.756;2023-06-26T08:14:06;83055.44;;;-144.30;39.56
7180;BME280;3631;42.152;24.756;2023-06-26T08:16:32;83146.81;;;-144.30;40.11
7180;BME280;3631;42.152;24.756;2023-06-26T08:19:01;83498.47;;;-144.30;40.81
7180;BME280;3631;42.152;24.756;2023-06-26T08:21:28;83206.41;;;-144.30;40.76
7180;BME280;3631;42.152;24.756;2023-06-26T08:23:54;83156.75;;;-144.30;42.56
7180;BME280;3631;42.152;24.756;2023-06-26T08:26:21;83317.66;;;-144.30;51.93
7180;BME280;3631;42.152;24.756;2023-06-26T08:28:48;83470.66;;;-144.30;56.73
7180;BME280;3631;42.152;24.756;2023-06-26T08:31:16;83579.94;;;-144.30;59.28
7180;BME280;3631;42.152;24.756;2023-06-26T08:33:43;83625.63;;;-144.30;63.25
7180;BME280;3631;42.152;24.756;2023-06-26T08:36:11;83699.16;;;-144.30;66.01
7180;BME280;3631;42.152;24.756;2023-06-26T08:38:38;83810.41;;;-144.30;69.95
7180;BME280;3631;42.152;24.756;2023-06-26T08:41:05;83822.34;;;-144.30;73.01
7180;BME280;3631;42.152;24.756;2023-06-26T08:43:32;83822.34;;;-144.30;72.83
7180;BME280;3631;42.152;24.756;2023-06-26T08:45:59;83818.38;;;-144.30;74.22
7180;BME280;3631;42.152;24.756;2023-06-26T08:48:29;83772.66;;;-144.30;75.99
7180;BME280;3631;42.152;24.756;2023-06-26T08:50:57;83772.66;;;-144.30;77.03
7180;BME280;3631;42.152;24.756;2023-06-26T08:53:33;83764.72;;;-144.30;77.38
7180;BME280;3631;42.152;24.756;2023-06-26T08:56:01;83560.06;;;-144.30;75.86
7180;BME280;3631;42.152;24.756;2023-06-26T08:58:28;83643.50;;;-144.30;74.96
7180;BME280;3631;42.152;24.756;2023-06-26T09:00:55;83572.00;;;-144.30;65.90
7180;BME280;3631;42.152;24.756;2023-06-26T09:03:23;83512.38;;;-144.30;64.64
7180;BME280;3631;42.152;24.756;2023-06-26T09:05:51;83335.56;;;-144.30;59.88
7180;BME280;3631;42.152;24.756;2023-06-26T09:08:18;83250.13;;;-144.30;58.84
7180;BME280;3631;42.152;24.756;2023-06-26T09:10:47;83095.16;;;-144.30;54.99
7180;BME280;3631;42.152;24.756;2023-06-26T09:13:14;83130.94;;;-144.30;53.97
7180;BME280;3631;42.152;24.756;2023-06-26T09:15:42;83119.00;;;-144.30;52.39
7180;BME280;3631;42.152;24.756;2023-06-26T09:18:10;83047.50;;;-144.30;52.14
7180;BME280;3631;42.152;24.756;2023-06-26T09:20:40;83031.59;;;-144.30;52.76
7180;BME280;3631;42.152;24.756;2023-06-26T09:23:07;82956.09;;;-144.30;48.59
7180;BME280;3631;42.152;24.756;2023-06-26T09:25:38;83011.72;;;-144.30;49.49
7180;BME280;3631;42.152;24.756;2023-06-26T09:28:08;82956.09;;;-144.30;48.20
7180;BME280;3631;42.152;24.756;2023-06-26T09:30:35;83186.56;;;-144.30;52.55
7180;BME280;3631;42.152;24.756;2023-06-26T09:33:14;83399.13;;;-144.30;55.64
7180;BME280;3631;42.152;24.756;2023-06-26T09:35:41;83536.22;;;-144.30;57.41
7180;BME280;3631;42.152;24.756;2023-06-26T09:38:08;83655.44;;;-144.30;59.83
7180;BME280;3631;42.152;24.756;2023-06-26T09:40:35;83740.88;;;-144.30;62.88
7180;BME280;3631;42.152;24.756;2023-06-26T09:43:04;83786.56;;;-144.30;65.95
7180;BME280;3631;42.152;24.756;2023-06-26T09:45:32;83828.31;;;-144.30;70.88
7180;BME280;3631;42.152;24.756;2023-06-26T09:48:00;83846.19;;;-144.30;69.13
7180;BME280;3631;42.152;24.756;2023-06-26T09:50:28;83887.91;;;-144.30;66.73
7180;BME280;3631;42.152;24.756;2023-06-26T09:52:57;83941.56;;;-144.30;65.62
7180;BME280;3631;42.152;24.756;2023-06-26T09:55:25;83963.44;;;-144.30;69.89
7180;BME280;3631;42.152;24.756;2023-06-26T09:57:56;83997.22;;;-144.30;71.84
7180;BME280;3631;42.152;24.756;2023-06-26T10:00:26;84025.03;;;-144.30;72.51
7180;BME280;3631;42.152;24.756;2023-06-26T10:02:54;84142.28;;;-144.30;72.80
7180;BME280;3631;42.152;24.756;2023-06-26T10:05:21;84038.94;;;-144.30;72.45
7180;BME280;3631;42.152;24.756;2023-06-26T10:07:48;84068.75;;;-144.30;74.97
7180;BME280;3631;42.152;24.756;2023-06-26T10:10:16;84396.66;;;-144.30;76.90
7180;BME280;3631;42.152;24.756;2023-06-26T10:12:47;84078.69;;;-144.30;78.21
7180;BME280;3631;42.152;24.756;2023-06-26T10:15:15;84040.91;;;-144.30;80.05
7180;BME280;3631;42.152;24.756;2023-06-26T10:17:43;84029.00;;;-144.30;81.35
7180;BME280;3631;42.152;24.756;2023-06-26T10:20:14;83981.31;;;-144.30;82.03
7180;BME280;3631;42.152;24.756;2023-06-26T10:22:45;83713.06;;;-144.30;82.72
7180;BME280;3631;42.152;24.756;2023-06-26T10:25:18;83889.91;;;-144.30;80.51
7180;BME280;3631;42.152;24.756;2023-06-26T10:27:48;83834.25;;;-144.30;81.75
7180;BME280;3631;42.152;24.756;2023-06-26T10:30:18;83824.31;;;-144.30;78.59
7180;BME280;3631;42.152;24.756;2023-06-26T10:32:47;83818.38;;;-144.30;78.00
7180;BME280;3631;42.152;24.756;2023-06-26T10:35:16;83748.81;;;-144.30;73.21
7180;BME280;3631;42.152;24.756;2023-06-26T10:37:44;83643.50;;;-144.30;66.75
7180;BME280;3631;42.152;24.756;2023-06-26T10:40:12;83603.78;;;-144.30;63.47
7180;BME280;3631;42.152;24.756;2023-06-26T10:42:40;83460.72;;;-144.30;60.60
7180;BME280;3631;42.152;24.756;2023-06-26T10:45:10;83484.56;;;-144.30;59.17
7180;BME280;3631;42.152;24.756;2023-06-26T10:47:40;83462.72;;;-144.30;53.68
7180;BME280;3631;42.152;24.756;2023-06-26T10:50:19;83357.41;;;-144.30;55.46
7180;BME280;3631;42.152;24.756;2023-06-26T10:53:09;83472.66;;;-144.30;56.95
7180;BME280;3631;42.152;24.756;2023-06-26T10:55:37;83460.72;;;-144.30;56.75
7180;BME280;3631;42.152;24.756;2023-06-26T10:58:04;83440.84;;;-144.30;58.86
7180;BME280;3631;42.152;24.756;2023-06-26T11:00:31;83367.34;;;-144.30;55.37
7180;BME280;3631;42.152;24.756;2023-06-26T11:02:58;83377.28;;;-144.30;53.82
7180;BME280;3631;42.152;24.756;2023-06-26T11:05:29;83365.34;;;-144.30;54.64
7180;BME280;3631;42.152;24.756;2023-06-26T11:08:03;83333.56;;;-144.30;53.66
7180;BME280;3631;42.152;24.756;2023-06-26T11:10:48;83166.69;;;-144.30;52.04
7180;BME280;3631;42.152;24.756;2023-06-26T11:13:17;83297.81;;;-144.30;49.59
7180;BME280;3631;42.152;24.756;2023-06-26T11:15:44;83281.91;;;-144.30;48.93
7180;BME280;3631;42.152;24.756;2023-06-26T11:18:12;83270.00;;;-144.30;48.28
7180;BME280;3631;42.152;24.756;2023-06-26T11:20:41;83226.28;;;-144.30;46.51
7180;BME280;3631;42.152;24.756;2023-06-26T11:23:08;83929.66;;;-144.30;45.76
7180;BME280;3631;42.152;24.756;2023-06-26T11:25:36;83158.75;;;-144.30;45.37
7180;BME280;3631;42.152;24.756;2023-06-26T11:28:03;83190.53;;;-144.30;45.17
7180;BME280;3631;42.152;24.756;2023-06-26T11:30:31;83184.56;;;-144.30;44.67
7180;BME280;3631;42.152;24.756;2023-06-26T11:33:08;83242.19;;;-144.30;45.83
7180;BME280;3631;42.152;24.756;2023-06-26T11:35:35;83162.72;;;-144.30;48.55
7180;BME280;3631;42.152;24.756;2023-06-26T11:38:04;83256.09;;;-144.30;47.60
7180;BME280;3631;42.152;24.756;2023-06-26T11:40:32;83363.38;;;-144.30;51.65
7180;BME280;3631;42.152;24.756;2023-06-26T11:43:01;83468.66;;;-144.30;55.64
7180;BME280;3631;42.152;24.756;2023-06-26T11:45:29;83456.75;;;-144.30;55.27
7180;BME280;3631;42.152;24.756;2023-06-26T11:47:57;83546.16;;;-144.30;55.71
7180;BME280;3631;42.152;24.756;2023-06-26T11:50:24;83617.69;;;-144.30;56.62
7180;BME280;3631;42.152;24.756;2023-06-26T11:52:54;83597.81;;;-144.30;58.94
7180;BME280;3631;42.152;24.756;2023-06-26T11:55:25;83609.75;;;-144.30;57.88
7180;BME280;3631;42.152;24.756;2023-06-26T11:57:54;83548.16;;;-144.30;60.32
7180;BME280;3631;42.152;24.756;2023-06-26T12:00:22;83512.38;;;-144.30;60.06
7180;BME280;3631;42.152;24.756;2023-06-26T12:02:49;84162.16;;;-144.30;58.47
7180;BME280;3631;42.152;24.756;2023-06-26T12:05:17;83454.75;;;-144.30;57.12
7180;BME280;3631;42.152;24.756;2023-06-26T12:07:46;83303.75;;;-144.30;56.70
7180;BME280;3631;42.152;24.756;2023-06-26T12:10:14;83456.75;;;-144.30;54.01
7180;BME280;3631;42.152;24.756;2023-06-26T12:12:43;83498.47;;;-144.30;54.46
7180;BME280;3631;42.152;24.756;2023-06-26T12:15:16;83337.53;;;-144.30;56.25
7180;BME280;3631;42.152;24.756;2023-06-26T12:17:43;83387.22;;;-144.30;55.10
7180;BME280;3631;42.152;24.756;2023-06-26T12:20:20;83359.41;;;-144.30;50.48
7180;BME280;3631;42.152;24.756;2023-06-26T12:22:48;83333.56;;;-144.30;48.65
7180;BME280;3631;42.152;24.756;2023-06-26T12:25:20;83200.47;;;-144.30;48.76
7180;BME280;3631;42.152;24.756;2023-06-26T12:27:49;83246.16;;;-144.30;47.02
7180;BME280;3631;42.152;24.756;2023-06-26T12:30:16;83184.56;;;-144.30;47.98
7180;BME280;3631;42.152;24.756;2023-06-26T12:32:46;83198.47;;;-144.30;48.93
7180;BME280;3631;42.152;24.756;2023-06-26T12:35:13;83230.25;;;-144.30;48.03
7180;BME280;3631;42.152;24.756;2023-06-26T12:37:41;83162.72;;;-144.30;48.18
7180;BME280;3631;42.152;24.756;2023-06-26T12:40:16;83256.09;;;-144.30;47.62
7180;BME280;3631;42.152;24.756;2023-06-26T12:42:45;83226.28;;;-144.30;47.19
7180;BME280;3631;42.152;24.756;2023-06-26T12:45:14;83130.94;;;-144.30;46.95
7180;BME280;3631;42.152;24.756;2023-06-26T12:47:42;83252.09;;;-144.30;47.25
7180;BME280;3631;42.152;24.756;2023-06-26T12:50:09;83277.94;;;-144.30;47.87
7180;BME280;3631;42.152;24.756;2023-06-26T12:52:36;83222.31;;;-144.30;47.18
7180;BME280;3631;42.152;24.756;2023-06-26T12:55:05;83325.63;;;-144.30;48.95